Pilot Magazine UKGA

About You

Log In Register UKGA membership

Flight planning

Flight planning New flightplan NOTAM map LARS map & NOTAMs Danger area, mil. & TRA activations Weather map GPS route download Find waypoints Your waypoints New waypoint

Forums

Forums Currently discussing "Logbook entries"

Other items

Articles Events Links News Surveys Tips Other users Feedback UKGA membership About UKGA

TAFs

UK

TAF EGAA 250502Z 2506/2606 19012KT 9999 SCT025 
      TEMPO 2506/2512 19016G26KT 
      TEMPO 2512/2603 21018G30KT PROB30 
      TEMPO 2512/2522 7000 SHRA 
      TEMPO 2522/2606 6000 SHRA BKN014 
      BECMG 2602/2606 25012KT
      
TAF EGAC 250801Z 2509/2518 20015KT 9999 SCT022 
      TEMPO 2509/2518 21020G30KT PROB30 
      TEMPO 2517/2518 8000 SHRA
      
TAF EGAE 241101Z 2412/2416 22015KT 9999 FEW020 SCT035 
      TEMPO 2412/2416 22018G28KT 6000 SHRA
      
TAF EGBB 250454Z 2506/2606 18007KT 9999 FEW040 PROB30 
      TEMPO 2506/2511 7000 SHRA 
      TEMPO 2511/2519 7000 SHRA PROB30 
      TEMPO 2511/2519 20015G25KT 3000 +SHRA
      
TAF EGBJ 250930Z 2509/2518 20009KT 9999 SCT030 PROB30 
      TEMPO 2509/2511 7000 SHRA 
      TEMPO 2511/2518 7000 SHRA
      
TAF EGCC 250453Z 2506/2612 17012KT 9999 FEW025 
      TEMPO 2506/2612 7000 SHRA PROB30 
      TEMPO 2506/2518 20017G27KT 3000 +SHRA PROB30 
      TEMPO 2606/2612 20015G25KT 3000 +SHRA BKN014
      
TAF EGCK 250802Z 2509/2518 24022KT 9999 SCT015 
      TEMPO 2509/2516 7000 SHRA BKN012 PROB40 
      TEMPO 2509/2516 21025G35KT 3000 +SHRA PROB30 
      TEMPO 2516/2518 21025G35KT 3000 SHRA
      
TAF EGCN 250452Z 2506/2606 18008KT 9999 FEW025 PROB30 
      TEMPO 2506/2516 20015G25KT PROB30 
      TEMPO 2512/2516 7000 SHRA
      
TAF EGFF 250503Z 2506/2606 22013KT 9999 SCT028 
      TEMPO 2506/2606 7000 SHRA PROB40 
      TEMPO 2506/2606 23015G25KT 4000 +SHRA
      
TAF EGGD 250503Z 2506/2606 21011KT 9999 SCT028 
      TEMPO 2506/2519 7000 SHRA PROB40 
      TEMPO 2508/2518 22015G25KT 4000 +SHRA PROB30 
      TEMPO 2519/2602 7000 SHRA 
      TEMPO 2602/2606 7000 SHRA PROB40 
      TEMPO 2602/2606 25017G27KT 4000 +SHRA
      
TAF EGGP 250453Z 2506/2606 18012KT 9999 FEW025 
      TEMPO 2506/2606 7000 SHRA PROB30 
      TEMPO 2506/2518 20018G28KT 3000 +SHRA PROB30 
      TEMPO 2604/2606 3000 +SHRA
      
TAF EGGW 250501Z 2506/2606 20012KT 9999 SCT030 
      TEMPO 2508/2519 7000 SHRA PROB30 
      TEMPO 2508/2518 21015G25KT 4000 +SHRA
      
TAF AMD EGHC 241607Z 2416/2418 24012KT 9999 BKN025 
      TEMPO 2416/2418 25015G25KT 6000 RA BKN008 PROB40 
      TEMPO 2416/2417 3000 +RA BKN003
      
TAF EGHE 241403Z 2415/2418 20028G38KT 9999 BKN040 
      BECMG 2415/2418 26015KT 
      TEMPO 2415/2418 6000 RA BKN008 PROB40 
      TEMPO 2415/2417 3000 +RA BKN004
      
TAF EGHH 250755Z 2509/2518 20006KT 9999 SCT025 
      TEMPO 2509/2518 7000 SHRA PROB30 
      TEMPO 2509/2518 22015G25KT 3000 +TSRA
      
TAF EGHI 241657Z 2418/2422 20015KT 9999 BKN025 
      TEMPO 2418/2422 23017G27KT 6000 RA BKN014 PROB40 
      TEMPO 2418/2422 3000 +RA BKN006
      
TAF EGHQ 250756Z 2509/2518 21009KT 9999 SCT025 
      TEMPO 2509/2518 22015G25KT 7000 SHRA BKN014 PROB30 
      TEMPO 2509/2518 3000 +TSRA
      
TAF AMD EGJA 250904Z 2509/2518 22020KT 9999 FEW018CB 
      TEMPO 2509/2518 23022G32KT 6000 SHRA BKN016CB PROB30 
      TEMPO 2509/2518 3000 +TSRAGS BKN012CB
      
TAF EGJB 250758Z 2509/2518 22020KT 9999 FEW018CB 
      TEMPO 2509/2518 6000 SHRA BKN016CB PROB30 
      TEMPO 2509/2518 23022G32KT 3000 +TSRAGS BKN012CB
      
TAF EGJJ 250758Z 2509/2518 22018KT 9999 FEW018CB PROB40 
      TEMPO 2509/2518 6000 SHRA BKN016CB PROB30 
      TEMPO 2509/2518 23020G30KT 3000 +TSRAGS BKN012CB
      
TAF EGKA 250925Z 2509/2518 22012KT 9999 SCT020 
      TEMPO 2509/2518 23018G30KT 7000 SHRA PROB30 
      TEMPO 2509/2518 3000 +TSRA
      
TAF EGKB 250927Z 2509/2518 22008KT 9999 SCT030 
      TEMPO 2509/2518 7000 SHRA PROB30 
      TEMPO 2509/2518 22015G25KT 4000 +SHRA
      
TAF AMD EGKK 251019Z 2510/2612 22010KT 9999 SCT030 
      TEMPO 2510/2522 6000 SHRA PROB30 
      TEMPO 2510/2520 25015G25KT 4000 +SHRA 
      TEMPO 2610/2612 8000 SHRA
      
TAF EGLC 250803Z 2509/2518 23008KT 9999 SCT030 
      TEMPO 2509/2518 7000 SHRA PROB30 
      TEMPO 2509/2518 23015G25KT 4000 +SHRA
      
TAF EGLF 250803Z 2509/2518 22008KT 9999 SCT030 
      TEMPO 2509/2518 7000 SHRA PROB30 
      TEMPO 2509/2518 22015G25KT 3000 +TSRA
      
TAF EGLL 250458Z 2506/2612 20012KT 9999 SCT035 
      TEMPO 2506/2519 6000 SHRA PROB30 
      TEMPO 2508/2518 22015G25KT 4000 +SHRA 
      TEMPO 2610/2612 8000 SHRA PROB30 
      TEMPO 2610/2612 26015G25KT
      
TAF EGMC 250803Z 2509/2518 21009KT 9999 FEW045 
      TEMPO 2509/2518 7000 SHRA PROB30 
      TEMPO 2509/2518 22015G25KT 4000 +SHRA
      
TAF EGMD 250803Z 2509/2518 23012KT 9999 SCT020 
      TEMPO 2509/2518 23018G30KT 7000 SHRA PROB30 
      TEMPO 2509/2518 3000 +TSRA
      
TAF EGNH 250802Z 2509/2518 19014KT 9999 SCT020 
      TEMPO 2509/2516 7000 SHRA PROB30 
      TEMPO 2509/2518 20017G27KT 3000 +SHRA
      
TAF EGNJ 250802Z 2509/2518 20013KT 9999 SCT035 PROB30 
      TEMPO 2509/2515 22016G26KT
      
TAF EGNM 250452Z 2506/2606 18007KT 9999 FEW025 PROB30 
      TEMPO 2506/2515 20015G25KT 7000 SHRA PROB30 
      TEMPO 2604/2606 6000 SHRA BKN014
      
TAF EGNR 250836Z 2508/2515 20012KT 9999 SCT030 
      TEMPO 2508/2515 7000 SHRA PROB30 
      TEMPO 2508/2515 22015G25KT 3000 +SHRA
      
TAF EGNS 250800Z 2509/2518 23025KT 9999 BKN025
      
TAF EGNT 250452Z 2506/2606 18006KT 9999 FEW025 
      TEMPO 2506/2516 7000 SHRA BKN012 PROB30 
      TEMPO 2506/2516 20016G26KT PROB30 
      TEMPO 2604/2606 7000 SHRA
      
TAF EGNV 250802Z 2509/2518 18012KT 9999 SCT030 PROB30 
      TEMPO 2509/2515 21016G26KT
      
TAF EGNX 250454Z 2506/2606 20009KT 9999 FEW040 
      TEMPO 2512/2519 7000 SHRA PROB30 
      TEMPO 2512/2519 21015G25KT 3000 +SHRA
      
TAF EGPA 250800Z 2509/2518 18015G25KT 9999 FEW030 
      TEMPO 2515/2518 6000 SHRA PROB30 
      TEMPO 2515/2518 19022G35KT 3000 +SHRA BKN014CB
      
TAF EGPB 250800Z 2509/2518 18014KT 9999 SCT020 PROB30 
      TEMPO 2509/2518 19018G28KT 6000 SHRA
      
TAF EGPC 250800Z 2509/2518 18018G28KT 9999 FEW035 
      TEMPO 2515/2518 6000 SHRA PROB30 
      TEMPO 2515/2518 19025G38KT 3000 +SHRA BKN014CB
      
TAF AMD EGPD 250723Z 2507/2606 18009KT 9999 FEW040 PROB30 
      TEMPO 2507/2512 19015G25KT 6000 SHRA PROB40 
      TEMPO 2512/2603 19018G28KT PROB30 
      TEMPO 2600/2606 6000 SHRA BKN014
      
TAF EGPE 250800Z 2509/2518 12008KT 9999 SCT045 
      BECMG 2509/2512 19012KT PROB30 
      TEMPO 2509/2512 20015G25KT 6000 SHRA PROB40 
      TEMPO 2512/2518 20015G28KT 6000 SHRA
      
TAF EGPF 250457Z 2506/2606 19009KT 9999 FEW015 SCT030 PROB40 
      TEMPO 2506/2521 6000 SHRA PROB30 
      TEMPO 2506/2509 20015G28KT 
      TEMPO 2509/2603 20015G25KT PROB30 
      TEMPO 2512/2524 21022G35KT 
      TEMPO 2521/2606 6000 SHRA PROB30 
      TEMPO 2522/2606 4000 +SHRA BKN012
      
TAF EGPH 250457Z 2506/2606 20009KT 9999 SCT030 PROB30 
      TEMPO 2506/2512 6000 SHRA PROB30 
      TEMPO 2506/2509 21015G25KT 
      TEMPO 2509/2524 20015G25KT PROB30 
      TEMPO 2512/2524 21022G35KT 6000 SHRA 
      TEMPO 2600/2606 6000 SHRA PROB30 
      TEMPO 2602/2606 4000 +SHRA BKN014
      
TAF EGPI 250938Z 2509/2518 20017KT 9999 FEW018 SCT025 
      TEMPO 2509/2518 21020G30KT 6000 SHRA PROB30 
      TEMPO 2509/2518 22028G40KT 4000 +SHRA SHRAGS BKN014CB
      
TAF EGPK 250457Z 2506/2606 19012KT 9999 FEW015 SCT030 PROB40 
      TEMPO 2506/2521 6000 SHRA PROB30 
      TEMPO 2506/2509 20015G28KT 
      TEMPO 2509/2603 20015G25KT PROB30 
      TEMPO 2512/2603 21022G35KT 
      TEMPO 2521/2606 6000 SHRA PROB30 
      TEMPO 2521/2606 4000 +SHRA BKN014 
      BECMG 2603/2606 25009KT
      
TAF EGPL 250800Z 2509/2518 18014KT 9999 FEW018 SCT025 
      TEMPO 2509/2518 19020G30KT 6000 SHRA PROB30 
      TEMPO 2509/2515 20028G40KT 3000 +SHRA SHRAGS BKN014CB PROB30 
      TEMPO 2515/2518 3000 +SHRA BKN014
      
TAF EGPN 250852Z 2509/2518 20009KT 9999 SCT030 PROB30 
      TEMPO 2509/2512 22015G25KT 6000 SHRA 
      TEMPO 2512/2518 22015G28KT 6000 SHRA
      
TAF EGPO 250800Z 2509/2518 17020G30KT 9999 FEW018 SCT025 
      TEMPO 2509/2518 18028G40KT 6000 SHRA PROB30 
      TEMPO 2509/2518 4000 +SHRA SHRAGS BKN014CB
      
TAF EGPU 250605Z 2506/2515 CNL
      
TAF EGQL 250729Z 2509/2518 18015KT 9999 SCT045 PROB30 
      TEMPO 2509/2517 7000 SHRA SCT024CB 
      BECMG 2510/2512 22017G27KT
      
TAF EGQS 250729Z 2509/2603 16014KT 9999 FEW040 PROB30 
      TEMPO 2509/2603 19015G25KT
      
TAF EGSC 251027Z 2510/2518 21012KT 9999 FEW025 PROB30 
      TEMPO 2512/2518 8000 SHRA
      
TAF EGSH 250801Z 2509/2518 21010KT 9999 FEW025 PROB30 
      TEMPO 2510/2512 24015G25KT PROB30 
      TEMPO 2513/2516 6000 SHRA
      
TAF EGSS 250501Z 2506/2612 21012KT 9999 SCT030 
      TEMPO 2506/2520 7000 SHRA PROB30 
      TEMPO 2508/2520 22015G25KT 4000 +SHRA 
      TEMPO 2610/2612 7000 SHRA
      
TAF EGSY 250854Z 2509/2517 22009KT 9999 SCT030 
      TEMPO 2509/2517 22015G25KT 7000 SHRA PROB30 
      TEMPO 2509/2517 3000 +TSRA
      
TAF EGTC 250900Z 2509/2518 22014KT 9999 FEW022 PROB40 
      TEMPO 2512/2518 8000 SHRA
      
TAF EGTE 250826Z 2509/2518 20008KT 9999 SCT030 
      TEMPO 2509/2518 7000 SHRA PROB30 
      TEMPO 2509/2518 3000 +TSRA
      
TAF EGTK 250803Z 2509/2518 20012KT 9999 SCT025 PROB40 
      TEMPO 2509/2512 7000 SHRA 
      TEMPO 2512/2518 7000 SHRA PROB30 
      TEMPO 2512/2518 4000 +SHRA
      
TAF EGUL 251000Z 2510/2616 19012G20KT 9999 SCT050 QNH2938INS 
      BECMG 2512/2513 21015G25KT 9999 VCTS BKN050CB QNH2938INS 
      BECMG 2515/2516 19012KT 9999 NSW SCT030 QNH2937INS 
      BECMG 2608/2609 21015G25KT 9999 BKN030 QNH2937INS TX14/2514Z TN08/2608Z
      
TAF EGUN 250400Z 2504/2610 23012KT 9999 BKN020 QNH2938INS 
      BECMG 2507/2508 20010G20KT 9999 SCT020 QNH2938INS 
      BECMG 2512/2513 21010G25KT 9999 VCTS SCT030 BKN050CB QNH2938INS 
      BECMG 2517/2518 19010G15KT 9999 NSW SCT030 QNH2937INS 
      BECMG 2608/2609 21015G25KT 9999 BKN030 QNH2937INS TX14/2514Z TN08/2508Z
      
TAF EGVN 250716Z 2509/2609 21010KT 9999 SCT030 PROB30 
      TEMPO 2510/2521 6000 SHRA SCT020CB
      
TAF EGWU 250730Z 2509/2603 21012KT 9999 FEW025 PROB30 
      TEMPO 2509/2511 7000 SHRA SCT020 PROB40 
      TEMPO 2511/2518 7000 SHRA PROB30 
      TEMPO 2511/2517 22015G25KT 4000 +SHRA SCT020CB
      
TAF EGXC 250728Z 2509/2603 21014KT 9999 SCT025 
      TEMPO 2511/2517 22015G25KT PROB30 
      TEMPO 2512/2517 7000 SHRA BKN022CB
      
TAF EGYP 250711Z 2509/2603 03012KT 9999 BKN010 PROB30 
      TEMPO 2509/2512 4000 -RADZ SCT003 
      TEMPO 2512/2601 4000 -RADZ SCT003 
      BECMG 2515/2518 01015G25KT 520003 PROB30 
      TEMPO 2516/2601 VRB08KT 2000 RADZ 560003 
      BECMG 2600/2603 30013KT 50//// PROB40 2601/2603 0500 FG BKN000
      

About You

Log In Register UKGA membership

Airfields

Interactive airfield map Search by name Search by postcode Search by location Fuel prices Pilot reviews Latest
(No favourites selected)

Flight planning

Flight planning New flightplan NOTAM map LARS map & NOTAMs Danger area, mil. & TRA activations Weather map GPS route download Find waypoints Your waypoints New waypoint

Forums

Forums Currently discussing "Logbook entries"

Other items

Articles Events Links News Surveys Tips Other users Feedback UKGA membership About UKGA